Time;durP1;ratioP1;P1;durP2;ratioP2;P2;SDS_P1;SDS_P2;PMS_P1;PMS_P2;Temp;Humidity;BMP_temperature;BMP_pressure;BME280_temperature;BME280_humidity;BME280_pressure;Samples;Min_cycle;Max_cycle;Signal;HPM_P1;HPM_P2
2021/05/02 00:00:38;;;;;;;3.23;1.30;;;14.90;99.90;;;;;;5038025;28;20250;-91
2021/05/02 00:03:10;;;;;;;4.23;1.50;;;14.80;99.90;;;;;;5037802;28;20282;-91
2021/05/02 00:05:43;;;;;;;2.03;1.53;;;14.80;99.90;;;;;;5037605;28;20213;-91
2021/05/02 00:08:14;;;;;;;2.77;1.70;;;14.80;99.90;;;;;;5038179;28;20209;-91
2021/05/02 00:10:44;;;;;;;2.17;1.40;;;14.70;99.90;;;;;;5040549;28;20244;-90
2021/05/02 00:13:15;;;;;;;4.13;1.60;;;14.70;99.90;;;;;;5040355;28;20232;-91
2021/05/02 00:15:46;;;;;;;1.83;1.07;;;14.70;99.90;;;;;;5037398;28;20208;-91
2021/05/02 00:18:18;;;;;;;4.00;1.40;;;14.80;99.90;;;;;;5023590;28;20259;-90
2021/05/02 00:20:51;;;;;;;2.50;1.20;;;14.90;99.90;;;;;;5037570;28;20572;-90
2021/05/02 00:23:23;;;;;;;3.00;1.10;;;15.10;99.90;;;;;;5037961;28;20229;-89
2021/05/02 00:25:55;;;;;;;3.10;1.30;;;15.10;99.90;;;;;;5037532;28;20200;-90
2021/05/02 00:28:25;;;;;;;3.47;1.20;;;15.10;99.90;;;;;;5041667;28;20205;-90
2021/05/02 00:30:56;;;;;;;3.47;0.90;;;15.20;99.90;;;;;;5037321;28;20225;-90
2021/05/02 00:33:26;;;;;;;2.20;1.03;;;15.20;99.90;;;;;;5038216;28;20326;-90
2021/05/02 00:35:59;;;;;;;2.53;1.10;;;15.20;99.90;;;;;;5037379;28;20236;-90
2021/05/02 00:38:29;;;;;;;5.03;1.10;;;15.20;99.90;;;;;;5039864;28;20239;-89
2021/05/02 00:41:05;;;;;;;2.80;1.10;;;15.30;99.90;;;;;;5037434;28;20236;-89
2021/05/02 00:43:39;;;;;;;1.93;1.10;;;15.40;99.90;;;;;;5037342;28;20689;-88
2021/05/02 00:46:15;;;;;;;2.63;1.23;;;15.60;99.90;;;;;;5037258;28;20215;-90
2021/05/02 00:48:53;;;;;;;2.20;1.00;;;15.80;99.90;;;;;;5041209;28;20299;-90
2021/05/02 00:51:27;;;;;;;3.57;1.13;;;15.70;99.90;;;;;;5023329;28;20209;-90
2021/05/02 00:54:17;;;;;;;2.83;1.30;;;15.70;99.90;;;;;;5039929;28;20208;-91
2021/05/02 00:57:02;;;;;;;3.40;1.50;;;15.60;99.90;;;;;;5036625;28;20205;-90
2021/05/02 00:59:54;;;;;;;3.30;1.50;;;15.60;99.90;;;;;;5037188;28;20239;-91
2021/05/02 01:02:28;;;;;;;4.07;0.97;;;15.40;99.90;;;;;;5030255;28;20232;-91
2021/05/02 01:05:03;;;;;;;4.10;1.33;;;15.30;99.90;;;;;;5036814;28;20216;-91
2021/05/02 01:07:39;;;;;;;4.03;1.33;;;15.10;99.90;;;;;;5044127;28;20205;-91
2021/05/02 01:10:13;;;;;;;2.87;1.27;;;15.00;99.90;;;;;;5055038;28;20268;-91
2021/05/02 01:12:46;;;;;;;2.73;1.33;;;14.80;99.90;;;;;;5053554;28;20205;-91
2021/05/02 01:15:21;;;;;;;2.50;1.20;;;14.60;99.90;;;;;;5039555;28;20239;-90
2021/05/02 01:17:58;;;;;;;5.00;1.37;;;14.60;99.90;;;;;;5037868;28;20315;-91
2021/05/02 01:20:29;;;;;;;3.87;1.60;;;14.50;99.90;;;;;;5037155;28;20617;-90
2021/05/02 01:23:05;;;;;;;3.10;1.20;;;14.50;99.90;;;;;;5019568;28;20232;-90
2021/05/02 01:25:37;;;;;;;5.03;1.50;;;14.40;99.90;;;;;;5036866;28;20267;-90
2021/05/02 01:28:08;;;;;;;4.30;1.67;;;14.20;99.90;;;;;;5036190;28;20220;-90
2021/05/02 01:30:41;;;;;;;3.47;1.30;;;14.20;99.90;;;;;;5019666;28;20630;-90
2021/05/02 01:33:12;;;;;;;4.47;1.30;;;14.20;99.90;;;;;;5036845;28;20209;-89
2021/05/02 01:35:43;;;;;;;7.60;1.80;;;14.20;99.90;;;;;;5035921;28;20205;-90
2021/05/02 01:38:15;;;;;;;3.50;1.33;;;14.30;99.90;;;;;;5036613;28;20240;-90
2021/05/02 01:40:47;;;;;;;1.93;1.00;;;14.30;99.90;;;;;;5036699;28;20269;-90
2021/05/02 01:43:18;;;;;;;3.20;1.20;;;14.30;99.90;;;;;;5036622;28;20658;-90
2021/05/02 01:45:48;;;;;;;6.63;1.50;;;14.20;99.90;;;;;;5035375;28;20228;-91
2021/05/02 01:48:21;;;;;;;3.87;1.30;;;14.10;99.90;;;;;;5036255;28;20237;-90
2021/05/02 01:50:57;;;;;;;5.77;1.30;;;13.90;99.90;;;;;;5036393;28;20270;-91
2021/05/02 01:53:29;;;;;;;4.80;1.30;;;13.80;99.90;;;;;;5036339;28;20232;-90
2021/05/02 01:56:02;;;;;;;7.97;1.43;;;13.80;99.90;;;;;;5036726;28;20646;-91
2021/05/02 01:58:37;;;;;;;3.87;1.50;;;13.90;99.90;;;;;;5047444;28;20220;-91
2021/05/02 02:01:09;;;;;;;5.00;1.57;;;14.00;99.90;;;;;;5041990;28;20266;-91
2021/05/02 02:03:40;;;;;;;6.07;1.60;;;14.10;99.90;;;;;;5037844;28;20233;-90
2021/05/02 02:06:11;;;;;;;4.50;1.57;;;14.10;99.90;;;;;;5037595;28;20205;-91
2021/05/02 02:08:42;;;;;;;4.83;1.73;;;14.00;99.90;;;;;;5035023;28;20216;-91
2021/05/02 02:11:14;;;;;;;3.93;1.40;;;14.00;99.90;;;;;;5035528;28;20665;-90
2021/05/02 02:13:48;;;;;;;3.47;1.40;;;14.00;99.90;;;;;;5037341;28;20254;-90
2021/05/02 02:16:18;;;;;;;6.67;2.13;;;14.10;99.90;;;;;;5036669;28;20204;-90
2021/05/02 02:18:50;;;;;;;4.80;1.57;;;13.90;99.90;;;;;;5035764;28;20242;-90
2021/05/02 02:21:23;;;;;;;3.27;1.27;;;13.90;99.90;;;;;;5035509;28;20204;-90
2021/05/02 02:23:57;;;;;;;6.47;1.80;;;13.70;99.90;;;;;;5039795;28;20229;-90
2021/05/02 02:26:37;;;;;;;6.00;1.70;;;13.60;99.90;;;;;;5033782;28;20231;-90
2021/05/02 02:29:10;;;;;;;2.13;1.20;;;13.50;99.90;;;;;;5019598;28;20205;-90
2021/05/02 02:31:44;;;;;;;2.33;1.43;;;13.30;99.90;;;;;;5035550;28;20234;-90
2021/05/02 02:34:16;;;;;;;3.23;1.50;;;13.10;99.90;;;;;;5035251;28;20216;-89
2021/05/02 02:36:47;;;;;;;4.20;1.70;;;13.10;99.90;;;;;;5034756;28;20221;-90
2021/05/02 02:39:18;;;;;;;3.47;1.50;;;13.00;99.90;;;;;;5034784;28;20308;-91
2021/05/02 02:41:50;;;;;;;4.40;1.33;;;13.00;99.90;;;;;;5034786;28;20316;-91
2021/05/02 02:44:23;;;;;;;4.50;1.63;;;12.90;99.90;;;;;;5034551;28;20213;-91
2021/05/02 02:46:58;;;;;;;3.80;1.57;;;12.90;99.90;;;;;;5034274;28;20235;-92
2021/05/02 02:49:34;;;;;;;6.20;1.27;;;12.90;99.90;;;;;;5034671;28;20243;-91
2021/05/02 02:52:05;;;;;;;3.33;1.00;;;12.90;99.90;;;;;;5034383;28;20303;-92
2021/05/02 02:54:37;;;;;;;3.57;1.37;;;12.80;99.90;;;;;;5034350;28;20204;-92
2021/05/02 02:57:13;;;;;;;3.00;1.47;;;12.70;99.90;;;;;;5033813;28;20213;-91
2021/05/02 02:59:46;;;;;;;3.27;1.40;;;12.70;99.90;;;;;;5002993;28;20236;-92
2021/05/02 03:02:19;;;;;;;3.53;1.10;;;12.70;99.90;;;;;;5045621;28;20224;-92
2021/05/02 03:04:54;;;;;;;6.53;1.70;;;12.60;99.90;;;;;;5037205;28;20756;-93
2021/05/02 03:07:25;;;;;;;3.80;1.27;;;12.50;99.90;;;;;;5054430;28;20249;-92
2021/05/02 03:09:56;;;;;;;4.17;1.27;;;12.50;99.90;;;;;;5054189;28;20665;-91
2021/05/02 03:12:27;;;;;;;4.13;1.27;;;12.50;99.90;;;;;;5037226;28;20208;-92
2021/05/02 03:14:58;;;;;;;5.87;1.47;;;12.50;99.90;;;;;;5056051;28;20209;-91
2021/05/02 03:17:32;;;;;;;5.50;1.57;;;12.40;99.90;;;;;;5054746;28;20208;-91
2021/05/02 03:20:07;;;;;;;3.93;1.27;;;12.40;99.90;;;;;;5057874;28;20212;-91
2021/05/02 03:22:44;;;;;;;4.67;1.10;;;12.40;99.90;;;;;;5054406;28;20271;-91
2021/05/02 03:25:16;;;;;;;5.97;1.30;;;12.40;99.90;;;;;;5036551;28;20665;-91
2021/05/02 03:27:52;;;;;;;4.20;1.23;;;12.40;99.90;;;;;;5037169;28;20246;-91
2021/05/02 03:30:25;;;;;;;5.13;1.43;;;12.30;99.90;;;;;;5054364;28;20227;-91
2021/05/02 03:32:58;;;;;;;10.20;2.30;;;12.20;99.90;;;;;;5043331;28;20208;-89
2021/05/02 03:35:34;;;;;;;5.60;1.90;;;12.20;99.90;;;;;;5052858;28;20204;-90
2021/05/02 03:38:13;;;;;;;5.10;1.80;;;12.20;99.90;;;;;;5071395;28;20208;-90
2021/05/02 03:40:44;;;;;;;8.53;2.00;;;12.20;99.90;;;;;;5059582;28;20258;-90
2021/05/02 03:43:16;;;;;;;6.30;1.63;;;12.20;99.90;;;;;;5055091;28;20290;-90
2021/05/02 03:45:46;;;;;;;6.63;1.80;;;12.20;99.90;;;;;;5037161;28;20204;-90
2021/05/02 03:48:17;;;;;;;5.93;1.90;;;12.10;99.90;;;;;;5056580;28;20250;-90
2021/05/02 03:50:47;;;;;;;6.30;1.80;;;12.00;99.90;;;;;;5056774;28;20208;-90
2021/05/02 03:53:17;;;;;;;6.13;1.40;;;12.00;99.90;;;;;;5058354;28;20208;-90
2021/05/02 03:55:48;;;;;;;4.97;1.40;;;11.90;99.90;;;;;;5055721;28;20238;-90
2021/05/02 03:58:21;;;;;;;7.60;1.70;;;11.90;99.90;;;;;;5058113;28;20656;-90
2021/05/02 04:00:50;;;;;;;6.50;1.50;;;11.80;99.90;;;;;;5054007;28;20212;-90
2021/05/02 04:03:21;;;;;;;9.13;1.90;;;11.80;99.90;;;;;;5055760;28;20259;-90
2021/05/02 04:05:52;;;;;;;6.93;1.60;;;11.80;99.90;;;;;;5055246;28;20278;-91
2021/05/02 04:08:26;;;;;;;4.10;1.80;;;11.80;99.90;;;;;;5055447;28;20207;-90
2021/05/02 04:10:56;;;;;;;5.63;1.50;;;11.70;99.90;;;;;;5049612;28;20212;-90
2021/05/02 04:13:27;;;;;;;9.07;1.30;;;11.70;99.90;;;;;;5034039;28;20259;-90
2021/05/02 04:15:58;;;;;;;6.27;1.43;;;11.70;99.90;;;;;;5033276;28;20213;-90
2021/05/02 04:18:32;;;;;;;6.67;1.50;;;11.60;99.90;;;;;;5016217;28;20205;-90
2021/05/02 04:21:03;;;;;;;10.27;1.90;;;11.60;99.90;;;;;;5016632;28;20228;-90
2021/05/02 04:23:35;;;;;;;6.53;1.63;;;11.50;99.90;;;;;;5022622;28;20228;-90
2021/05/02 04:26:06;;;;;;;11.83;2.37;;;11.50;99.90;;;;;;5052902;28;20209;-90
2021/05/02 04:28:39;;;;;;;8.33;1.90;;;11.50;99.90;;;;;;5053576;28;20217;-90
2021/05/02 04:31:11;;;;;;;8.93;2.00;;;11.20;99.90;;;;;;5037720;28;20218;-90
2021/05/02 04:33:42;;;;;;;5.90;1.17;;;11.30;99.90;;;;;;5057549;28;20220;-90
2021/05/02 04:36:12;;;;;;;6.23;1.87;;;11.20;99.90;;;;;;5039080;28;20208;-90
2021/05/02 04:38:43;;;;;;;5.17;1.53;;;11.20;99.90;;;;;;5057260;28;20209;-89
2021/05/02 04:41:14;;;;;;;9.50;1.70;;;11.10;99.90;;;;;;5056723;28;20275;-90
2021/05/02 04:43:46;;;;;;;7.67;1.60;;;11.00;99.90;;;;;;5056506;28;20270;-91
2021/05/02 04:46:17;;;;;;;9.93;1.93;;;11.00;99.90;;;;;;5056200;28;20495;-90
2021/05/02 04:48:48;;;;;;;6.47;1.67;;;10.90;99.90;;;;;;5057504;28;20234;-90
2021/05/02 04:51:19;;;;;;;9.97;2.10;;;10.90;99.90;;;;;;5056819;28;20204;-91
2021/05/02 04:53:51;;;;;;;8.07;2.03;;;10.90;99.90;;;;;;5057607;28;20631;-90
2021/05/02 04:56:22;;;;;;;9.43;1.90;;;10.70;99.90;;;;;;5055566;28;20270;-90
2021/05/02 04:58:54;;;;;;;6.67;1.77;;;10.70;99.90;;;;;;5038989;28;20204;-91
2021/05/02 05:01:25;;;;;;;5.03;1.50;;;10.70;99.90;;;;;;5056824;28;20227;-90
2021/05/02 05:03:57;;;;;;;9.57;2.27;;;10.70;99.90;;;;;;5021553;28;20228;-91
2021/05/02 05:06:26;;;;;;;6.37;1.57;;;10.80;99.90;;;;;;5037247;28;20235;-92
2021/05/02 05:08:57;;;;;;;10.33;1.97;;;10.70;99.90;;;;;;5036741;28;21000;-91
2021/05/02 05:11:28;;;;;;;6.40;1.80;;;10.70;99.90;;;;;;5046511;28;20216;-91
2021/05/02 05:14:00;;;;;;;8.17;1.97;;;10.70;99.90;;;;;;5056361;28;20254;-90
2021/05/02 05:16:31;;;;;;;8.80;1.80;;;10.60;99.90;;;;;;5057358;28;20211;-90
2021/05/02 05:19:02;;;;;;;8.07;2.10;;;10.50;99.90;;;;;;5057579;28;20212;-91
2021/05/02 05:21:33;;;;;;;11.77;1.80;;;10.50;99.90;;;;;;5059807;28;20208;-90
2021/05/02 05:24:05;;;;;;;6.50;1.40;;;10.50;99.90;;;;;;5058459;28;20697;-90
2021/05/02 05:26:36;;;;;;;7.43;1.90;;;10.50;99.90;;;;;;5058616;28;20609;-90
2021/05/02 05:29:08;;;;;;;11.07;1.70;;;10.50;99.90;;;;;;5056504;28;20217;-90
2021/05/02 05:31:47;;;;;;;8.63;1.40;;;10.50;99.90;;;;;;5055501;28;20204;-90
2021/05/02 05:34:18;;;;;;;7.90;1.63;;;10.50;99.90;;;;;;5056213;28;20200;-90
2021/05/02 05:36:49;;;;;;;6.30;1.50;;;10.60;99.90;;;;;;5055109;28;20242;-90
2021/05/02 05:39:19;;;;;;;7.80;1.80;;;10.50;99.90;;;;;;5055789;28;20276;-91
2021/05/02 05:41:50;;;;;;;7.93;1.33;;;10.50;99.90;;;;;;5056136;28;20211;-90
2021/05/02 05:44:22;;;;;;;5.97;1.47;;;10.50;99.90;;;;;;5055795;28;20278;-91
2021/05/02 05:46:53;;;;;;;10.17;1.60;;;10.40;99.90;;;;;;5055118;28;20231;-91
2021/05/02 05:49:24;;;;;;;9.67;1.93;;;10.40;99.90;;;;;;5056152;28;20208;-90
2021/05/02 05:51:55;;;;;;;7.37;1.47;;;10.40;99.90;;;;;;5039124;28;20266;-90
2021/05/02 05:54:26;;;;;;;3.73;1.67;;;10.30;99.90;;;;;;5056435;28;20212;-90
2021/05/02 05:56:57;;;;;;;8.20;1.53;;;10.30;99.90;;;;;;5057188;28;20215;-90
2021/05/02 05:59:29;;;;;;;10.43;2.20;;;10.30;99.90;;;;;;5073207;28;20230;-90
2021/05/02 06:02:00;;;;;;;6.67;1.23;;;10.30;99.90;;;;;;5067442;28;20197;-90
2021/05/02 06:04:31;;;;;;;5.40;1.30;;;10.30;99.90;;;;;;5047143;28;20237;-90
2021/05/02 06:07:02;;;;;;;8.83;1.80;;;10.30;99.90;;;;;;5035270;28;20212;-91
2021/05/02 06:09:34;;;;;;;8.07;1.60;;;10.20;99.90;;;;;;5035553;28;20645;-90
2021/05/02 06:12:05;;;;;;;5.93;1.53;;;10.20;99.90;;;;;;5041835;28;20228;-90
2021/05/02 06:14:38;;;;;;;8.33;1.70;;;10.20;99.90;;;;;;5037696;28;20208;-90
2021/05/02 06:17:09;;;;;;;5.93;1.50;;;10.20;99.90;;;;;;5018002;28;20236;-90
2021/05/02 06:19:40;;;;;;;8.97;1.80;;;10.30;99.90;;;;;;5038603;28;20213;-90
2021/05/02 06:22:11;;;;;;;8.43;1.50;;;10.30;99.90;;;;;;5036715;28;20209;-90
2021/05/02 06:24:42;;;;;;;7.33;1.33;;;10.20;99.90;;;;;;5054818;28;20620;-90
2021/05/02 06:27:13;;;;;;;4.90;1.20;;;10.20;99.90;;;;;;5054283;28;20213;-89
2021/05/02 06:29:46;;;;;;;7.53;1.63;;;10.20;99.90;;;;;;5056588;28;20205;-90
2021/05/02 06:32:16;;;;;;;6.10;1.50;;;10.10;99.90;;;;;;5055208;28;20281;-90
2021/05/02 06:34:47;;;;;;;5.50;1.40;;;10.10;99.90;;;;;;5054850;28;20215;-90
2021/05/02 06:37:18;;;;;;;6.33;1.43;;;10.10;99.90;;;;;;5054465;28;20214;-90
2021/05/02 06:39:49;;;;;;;11.00;2.20;;;10.10;99.90;;;;;;5054903;28;20671;-90
2021/05/02 06:42:20;;;;;;;6.40;1.27;;;10.00;99.90;;;;;;5054565;28;20262;-90
2021/05/02 06:44:54;;;;;;;6.30;1.40;;;9.90;99.90;;;;;;5037394;28;20688;-90
2021/05/02 06:47:25;;;;;;;8.43;1.90;;;9.80;99.90;;;;;;5054462;28;20228;-90
2021/05/02 06:49:55;;;;;;;6.07;1.53;;;9.70;99.90;;;;;;5038016;28;20624;-90
2021/05/02 06:52:25;;;;;;;7.27;2.00;;;9.60;99.90;;;;;;5054614;28;20262;-90
2021/05/02 06:54:55;;;;;;;8.97;1.53;;;9.70;99.90;;;;;;5053410;28;20564;-91
2021/05/02 06:57:25;;;;;;;5.30;1.60;;;9.60;99.90;;;;;;5054646;28;20562;-90
2021/05/02 06:59:56;;;;;;;7.80;1.80;;;9.50;99.90;;;;;;5054964;28;20207;-89
2021/05/02 07:02:26;;;;;;;7.07;1.60;;;9.50;99.90;;;;;;5045107;28;20569;-90
2021/05/02 07:04:57;;;;;;;8.70;2.00;;;9.50;99.90;;;;;;5036111;28;20224;-91
2021/05/02 07:07:28;;;;;;;6.63;1.50;;;9.50;99.90;;;;;;5034703;28;20716;-90
2021/05/02 07:09:58;;;;;;;7.27;1.70;;;9.50;99.90;;;;;;5034903;28;20212;-90
2021/05/02 07:12:29;;;;;;;7.80;1.50;;;9.50;99.90;;;;;;5036576;28;20217;-90
2021/05/02 07:15:02;;;;;;;7.03;1.47;;;9.50;99.90;;;;;;5034248;28;20204;-89
2021/05/02 07:17:33;;;;;;;4.17;1.33;;;9.60;99.90;;;;;;5022463;28;20291;-90
2021/05/02 07:20:06;;;;;;;10.30;1.57;;;9.60;99.90;;;;;;5054207;28;20576;-90
2021/05/02 07:22:37;;;;;;;7.33;1.90;;;9.70;99.90;;;;;;5054245;28;20277;-89
2021/05/02 07:25:09;;;;;;;8.47;1.77;;;9.70;99.90;;;;;;5053677;28;20242;-89
2021/05/02 07:27:39;;;;;;;10.10;1.77;;;9.70;99.90;;;;;;5037437;28;20652;-90
2021/05/02 07:30:13;;;;;;;15.60;2.10;;;9.70;99.90;;;;;;5056307;28;20231;-88
2021/05/02 07:32:43;;;;;;;8.57;1.40;;;9.70;99.90;;;;;;5054181;28;20211;-89
2021/05/02 07:35:13;;;;;;;8.30;1.63;;;9.70;99.90;;;;;;5053475;28;20203;-89
2021/05/02 07:37:43;;;;;;;9.73;1.67;;;9.70;99.90;;;;;;5055125;28;20200;-90
2021/05/02 07:40:15;;;;;;;4.57;1.90;;;9.70;99.90;;;;;;5053852;28;20642;-89
2021/05/02 07:42:46;;;;;;;9.33;1.60;;;9.70;99.90;;;;;;5053894;28;20629;-89
2021/05/02 07:45:17;;;;;;;7.50;1.57;;;9.70;99.90;;;;;;5053686;28;20223;-90
2021/05/02 07:47:48;;;;;;;6.97;1.20;;;9.80;99.90;;;;;;5043349;28;20569;-90
2021/05/02 07:50:18;;;;;;;7.73;1.47;;;9.70;99.90;;;;;;5034254;28;20205;-89
2021/05/02 07:52:48;;;;;;;4.57;1.40;;;9.70;99.90;;;;;;5034285;28;20204;-90
2021/05/02 07:55:17;;;;;;;6.10;1.80;;;9.60;99.90;;;;;;5034443;28;20208;-91
2021/05/02 07:57:47;;;;;;;6.90;1.50;;;9.50;99.90;;;;;;5033943;28;20212;-90
2021/05/02 08:00:21;;;;;;;2.83;1.20;;;9.50;99.90;;;;;;5034039;28;20267;-90
2021/05/02 08:02:51;;;;;;;5.17;1.40;;;9.40;99.90;;;;;;5034204;28;20275;-90
2021/05/02 08:05:21;;;;;;;11.37;1.60;;;9.40;99.90;;;;;;5034273;28;20262;-90
2021/05/02 08:07:51;;;;;;;7.43;1.57;;;9.30;99.90;;;;;;5038742;28;20236;-90
2021/05/02 08:10:21;;;;;;;7.23;2.00;;;9.20;99.90;;;;;;5039921;28;20639;-90
2021/05/02 08:12:52;;;;;;;5.67;1.40;;;9.20;99.90;;;;;;5048139;28;20243;-89
2021/05/02 08:15:24;;;;;;;9.37;1.53;;;9.20;99.90;;;;;;5052493;28;20205;-89
2021/05/02 08:17:56;;;;;;;6.27;1.70;;;9.20;99.90;;;;;;5056891;28;20211;-89
2021/05/02 08:20:27;;;;;;;9.53;1.87;;;9.20;99.90;;;;;;5056391;28;20209;-89
2021/05/02 08:22:56;;;;;;;7.03;1.50;;;9.20;99.90;;;;;;5053495;28;20235;-89
2021/05/02 08:25:26;;;;;;;7.70;1.60;;;9.20;99.90;;;;;;5045322;28;20258;-89
2021/05/02 08:27:57;;;;;;;6.20;1.70;;;9.20;99.90;;;;;;5042278;28;20216;-89
2021/05/02 08:30:29;;;;;;;8.37;1.57;;;9.20;99.90;;;;;;5038929;28;20215;-89
2021/05/02 08:33:00;;;;;;;6.17;1.83;;;9.20;99.90;;;;;;5039683;28;20238;-89
2021/05/02 08:35:31;;;;;;;6.30;1.73;;;9.30;99.90;;;;;;5037334;28;20216;-89
2021/05/02 08:38:01;;;;;;;7.20;1.83;;;9.20;99.90;;;;;;5037107;28;20237;-89
2021/05/02 08:40:32;;;;;;;9.13;2.17;;;9.30;99.90;;;;;;5037253;28;20212;-89
2021/05/02 08:43:06;;;;;;;10.67;1.70;;;9.30;99.90;;;;;;5041062;28;20220;-89
2021/05/02 08:45:38;;;;;;;9.77;2.30;;;9.20;99.90;;;;;;5036888;28;20296;-90
2021/05/02 08:48:08;;;;;;;6.77;1.83;;;9.20;99.90;;;;;;5037458;28;20242;-90
2021/05/02 08:50:39;;;;;;;8.73;2.13;;;9.10;99.90;;;;;;5036885;28;20568;-90
2021/05/02 08:53:10;;;;;;;7.20;1.90;;;9.20;99.90;;;;;;5037495;28;20687;-90
2021/05/02 08:55:41;;;;;;;7.90;1.93;;;9.10;99.90;;;;;;5036302;28;20320;-90
2021/05/02 08:58:16;;;;;;;5.23;1.60;;;9.20;99.90;;;;;;5036952;28;20270;-90
2021/05/02 09:00:51;;;;;;;6.07;1.60;;;9.10;99.90;;;;;;5037060;28;20216;-90
2021/05/02 09:03:21;;;;;;;5.63;1.33;;;9.00;99.90;;;;;;5037178;28;20273;-90
2021/05/02 09:05:53;;;;;;;5.97;1.40;;;9.00;99.90;;;;;;5003007;28;20335;-90
2021/05/02 09:08:32;;;;;;;8.10;1.73;;;9.00;99.90;;;;;;5036809;28;20278;-90
2021/05/02 09:11:03;;;;;;;10.03;2.03;;;8.90;99.90;;;;;;5036465;28;20259;-90
2021/05/02 09:13:33;;;;;;;6.10;1.57;;;8.80;99.90;;;;;;5036264;28;20239;-90
2021/05/02 09:16:07;;;;;;;9.87;2.17;;;8.70;99.90;;;;;;5019299;28;20290;-89
2021/05/02 09:18:39;;;;;;;9.33;2.03;;;8.70;99.90;;;;;;5036477;28;20211;-89
2021/05/02 09:21:15;;;;;;;7.63;1.90;;;8.60;99.90;;;;;;5038083;28;20383;-88
2021/05/02 09:23:46;;;;;;;7.53;1.47;;;8.60;99.90;;;;;;5035829;28;20263;-89
2021/05/02 09:26:24;;;;;;;7.70;2.33;;;8.60;99.90;;;;;;5035993;28;20217;-90
2021/05/02 09:28:56;;;;;;;7.43;1.47;;;8.50;99.90;;;;;;5038409;28;20239;-90
2021/05/02 09:31:30;;;;;;;5.70;1.57;;;8.50;99.90;;;;;;5038143;28;20286;-90
2021/05/02 09:34:13;;;;;;;6.97;1.67;;;8.50;99.90;;;;;;5038308;28;20518;-90
2021/05/02 09:36:55;;;;;;;7.57;1.73;;;8.60;99.90;;;;;;5036807;28;20234;-90
2021/05/02 09:39:39;;;;;;;4.23;1.60;;;8.50;99.90;;;;;;5036346;28;20211;-90
2021/05/02 09:42:11;;;;;;;10.83;2.50;;;8.60;99.90;;;;;;5035959;28;20209;-90
2021/05/02 09:44:46;;;;;;;8.10;1.93;;;8.50;99.90;;;;;;5035689;28;20327;-90
2021/05/02 09:47:30;;;;;;;6.67;1.70;;;8.50;99.90;;;;;;5035216;28;20212;-90
2021/05/02 09:50:18;;;;;;;5.37;1.33;;;8.50;99.90;;;;;;5035915;28;20200;-90
2021/05/02 09:52:50;;;;;;;4.23;1.50;;;8.50;99.90;;;;;;5035541;28;20225;-91
2021/05/02 09:55:28;;;;;;;6.47;1.67;;;8.50;99.90;;;;;;5037461;28;20219;-90
2021/05/02 09:58:06;;;;;;;6.63;1.70;;;8.50;99.90;;;;;;5035417;28;20679;-90
2021/05/02 10:00:39;;;;;;;7.30;1.70;;;8.60;99.90;;;;;;5035326;28;20232;-91
2021/05/02 10:03:16;;;;;;;5.57;1.53;;;8.50;99.90;;;;;;5035055;28;20730;-90
2021/05/02 10:05:57;;;;;;;6.37;1.50;;;8.50;99.90;;;;;;5034783;28;20736;-90
2021/05/02 10:08:29;;;;;;;3.53;1.20;;;8.50;99.90;;;;;;5035208;28;20219;-90
2021/05/02 10:11:02;;;;;;;4.43;1.33;;;8.50;99.90;;;;;;5035849;28;20235;-90
2021/05/02 10:13:35;;;;;;;8.80;1.50;;;8.50;99.90;;;;;;5035355;28;20223;-90
2021/05/02 10:16:07;;;;;;;6.57;1.63;;;8.40;99.90;;;;;;5034719;28;20248;-90
2021/05/02 10:18:40;;;;;;;5.87;1.40;;;8.40;99.90;;;;;;5017991;28;20243;-89
2021/05/02 10:21:10;;;;;;;6.80;1.47;;;8.40;99.90;;;;;;5035551;28;20208;-89
2021/05/02 10:23:42;;;;;;;7.00;1.57;;;8.40;99.90;;;;;;5035001;28;20322;-89
2021/05/02 10:26:15;;;;;;;6.03;1.40;;;8.40;99.90;;;;;;5034445;28;20230;-89
2021/05/02 10:28:49;;;;;;;4.50;1.30;;;8.30;99.90;;;;;;5018162;28;20303;-89
2021/05/02 10:31:28;;;;;;;6.67;1.30;;;8.30;99.90;;;;;;5047380;28;20223;-89
2021/05/02 10:34:00;;;;;;;6.60;1.30;;;8.30;99.90;;;;;;5052079;28;20233;-90
2021/05/02 10:36:31;;;;;;;5.37;1.13;;;8.20;99.90;;;;;;5059345;28;20277;-89
2021/05/02 10:39:03;;;;;;;5.60;1.37;;;8.20;99.90;;;;;;5055504;28;20249;-89
2021/05/02 10:41:53;;;;;;;6.03;1.70;;;8.20;99.90;;;;;;5055604;28;20207;-89
2021/05/02 10:44:32;;;;;;;7.60;1.53;;;8.30;99.90;;;;;;5057667;28;20281;-89
2021/05/02 10:47:03;;;;;;;6.17;1.60;;;8.20;99.90;;;;;;5059945;28;20241;-92
2021/05/02 10:49:57;;;;;;;4.67;1.60;;;8.30;99.90;;;;;;5064626;28;20655;-90
2021/05/02 10:52:36;;;;;;;8.27;1.60;;;8.30;99.90;;;;;;5057666;28;20640;-90
2021/05/02 10:55:12;;;;;;;6.00;1.33;;;8.30;99.90;;;;;;5058576;28;20206;-91
2021/05/02 10:57:42;;;;;;;6.47;1.47;;;8.30;99.90;;;;;;5055156;28;20212;-90
2021/05/02 11:00:15;;;;;;;5.27;1.50;;;8.30;99.90;;;;;;5054673;28;20248;-89
2021/05/02 11:02:47;;;;;;;5.70;1.30;;;8.30;99.90;;;;;;5054520;28;20242;-89
2021/05/02 11:05:20;;;;;;;5.63;1.60;;;8.30;99.90;;;;;;5053511;28;20233;-89
2021/05/02 11:07:59;;;;;;;6.77;1.60;;;8.30;99.90;;;;;;5037552;28;20241;-90
2021/05/02 11:10:52;;;;;;;9.00;1.57;;;8.20;99.90;;;;;;5054649;28;20233;-90
2021/05/02 11:13:30;;;;;;;8.33;1.73;;;8.20;99.90;;;;;;5054783;28;20225;-90
2021/05/02 11:16:25;;;;;;;7.17;1.47;;;8.10;99.90;;;;;;5054016;28;20215;-90
2021/05/02 11:18:56;;;;;;;5.33;1.30;;;8.10;99.90;;;;;;5054400;28;20211;-89
2021/05/02 11:21:49;;;;;;;6.67;1.50;;;8.00;99.90;;;;;;5054119;28;20210;-90
2021/05/02 11:24:21;;;;;;;6.77;1.47;;;7.90;99.90;;;;;;5054370;28;20260;-89
2021/05/02 11:26:55;;;;;;;5.30;1.43;;;7.90;99.90;;;;;;5053017;28;20332;-89
2021/05/02 11:29:30;;;;;;;4.80;1.50;;;7.90;99.90;;;;;;5053687;28;20270;-89
2021/05/02 11:32:01;;;;;;;5.80;1.13;;;7.90;99.90;;;;;;5053988;28;20297;-89
2021/05/02 11:34:50;;;;;;;7.27;1.37;;;7.90;99.90;;;;;;5053728;28;20220;-90
2021/05/02 11:37:40;;;;;;;6.00;1.30;;;7.90;99.90;;;;;;5053825;28;20211;-89
2021/05/02 11:40:35;;;;;;;4.90;1.70;;;7.90;99.90;;;;;;5037098;28;20211;-89
2021/05/02 11:43:11;;;;;;;7.37;1.77;;;7.90;99.90;;;;;;5057817;28;20210;-89
2021/05/02 11:45:52;;;;;;;9.27;1.50;;;7.90;99.90;;;;;;5057324;28;20233;-90
2021/05/02 11:48:25;;;;;;;4.10;1.10;;;8.00;99.90;;;;;;5058579;28;20208;-91
2021/05/02 11:50:58;;;;;;;6.60;1.87;;;8.00;99.90;;;;;;5058126;28;20234;-90
2021/05/02 11:53:40;;;;;;;5.57;1.10;;;8.10;99.90;;;;;;5037894;28;20277;-90
2021/05/02 11:56:13;;;;;;;4.30;1.30;;;8.20;99.90;;;;;;5036930;28;20211;-90
2021/05/02 11:58:44;;;;;;;8.00;1.57;;;8.20;99.90;;;;;;5037212;28;20236;-90
2021/05/02 12:01:17;;;;;;;8.57;1.40;;;8.10;99.90;;;;;;5021030;28;20222;-90
2021/05/02 12:03:47;;;;;;;7.00;1.80;;;8.00;99.90;;;;;;5037635;28;20233;-90
2021/05/02 12:06:24;;;;;;;4.03;1.00;;;8.00;99.90;;;;;;5037075;28;20241;-90
2021/05/02 12:08:57;;;;;;;5.00;1.30;;;8.00;99.90;;;;;;5037473;28;20218;-90
2021/05/02 12:11:29;;;;;;;3.27;1.00;;;8.00;99.90;;;;;;5037591;28;20680;-90
2021/05/02 12:13:59;;;;;;;5.73;1.30;;;8.10;99.90;;;;;;5037773;28;20224;-90
2021/05/02 12:16:30;;;;;;;4.03;1.10;;;8.00;99.90;;;;;;5037064;28;20200;-89
2021/05/02 12:19:03;;;;;;;4.90;1.40;;;7.90;99.90;;;;;;5037384;28;20292;-89
2021/05/02 12:21:36;;;;;;;7.33;1.50;;;7.90;99.90;;;;;;5037507;28;20214;-89
2021/05/02 12:24:13;;;;;;;6.97;1.40;;;7.80;99.90;;;;;;5037165;28;20245;-89
2021/05/02 12:26:45;;;;;;;6.80;1.40;;;7.70;99.90;;;;;;5036539;28;20301;-89
2021/05/02 12:29:19;;;;;;;5.00;1.37;;;7.60;99.90;;;;;;5037674;28;20291;-89
2021/05/02 12:31:54;;;;;;;4.83;1.23;;;7.60;99.90;;;;;;5037139;28;20236;-89
2021/05/02 12:34:27;;;;;;;5.70;1.43;;;7.50;99.90;;;;;;5037526;28;20215;-89
2021/05/02 12:36:58;;;;;;;5.50;1.20;;;7.40;99.90;;;;;;5036965;28;20230;-89
2021/05/02 12:39:41;;;;;;;5.37;1.50;;;7.40;99.90;;;;;;5044945;28;20292;-89
2021/05/02 12:42:12;;;;;;;5.63;1.67;;;7.30;99.90;;;;;;5057495;28;20736;-89
2021/05/02 12:44:52;;;;;;;3.40;1.40;;;7.20;99.90;;;;;;5066907;28;20240;-89
2021/05/02 12:47:26;;;;;;;4.70;1.80;;;7.10;99.90;;;;;;5068431;28;20204;-90
2021/05/02 12:50:00;;;;;;;7.10;1.53;;;7.10;99.90;;;;;;5066138;28;20206;-90
2021/05/02 12:52:32;;;;;;;5.43;1.20;;;7.00;99.90;;;;;;5039500;28;20206;-90
2021/05/02 12:55:22;;;;;;;4.63;1.20;;;6.90;99.90;;;;;;5039386;28;20267;-89
2021/05/02 12:57:54;;;;;;;8.70;1.27;;;6.90;99.90;;;;;;5057595;28;20285;-90
2021/05/02 13:00:28;;;;;;;7.67;1.27;;;6.90;99.90;;;;;;5057247;28;20274;-90
2021/05/02 13:02:59;;;;;;;3.97;1.50;;;6.90;99.90;;;;;;5056944;28;20208;-90
2021/05/02 13:05:30;;;;;;;9.37;1.77;;;6.80;99.90;;;;;;5056427;28;20276;-90
2021/05/02 13:08:13;;;;;;;4.33;1.20;;;6.80;99.90;;;;;;5057127;28;20211;-90
2021/05/02 13:10:46;;;;;;;8.97;1.30;;;6.80;99.90;;;;;;5057118;28;20266;-90
2021/05/02 13:13:22;;;;;;;7.30;1.30;;;6.80;99.90;;;;;;5056441;28;20232;-90
2021/05/02 13:15:53;;;;;;;8.17;1.83;;;6.70;99.90;;;;;;5055627;28;20230;-91
2021/05/02 13:18:23;;;;;;;4.27;1.40;;;6.70;99.90;;;;;;5056561;28;20247;-90
2021/05/02 13:20:59;;;;;;;4.33;1.53;;;6.70;99.90;;;;;;5056253;28;20290;-90